createdAt,value
2022-10-30T00:01:16.762Z,1.73
2022-10-30T00:03:44.594Z,1.02
2022-10-30T00:06:12.467Z,1.13
2022-10-30T00:08:39.653Z,1.40
2022-10-30T00:11:08.923Z,1.10
2022-10-30T00:13:37.231Z,5.43
2022-10-30T00:16:08.446Z,1.27
2022-10-30T00:18:37.109Z,1.00
2022-10-30T00:21:13.224Z,2.55
2022-10-30T00:23:49.779Z,1.42
2022-10-30T00:26:18.186Z,1.52
2022-10-30T00:28:50.221Z,1.45
2022-10-30T00:31:17.653Z,1.58
2022-10-30T00:33:48.597Z,2.53
2022-10-30T00:36:16.046Z,1.77
2022-10-30T00:38:43.255Z,1.77
2022-10-30T00:41:17.125Z,1.30
2022-10-30T00:43:44.558Z,1.20
2022-10-30T00:46:23.888Z,1.33
2022-10-30T00:48:56.640Z,1.75
2022-10-30T00:51:24.190Z,1.42
2022-10-30T00:53:52.510Z,1.92
2022-10-30T00:56:22.138Z,1.88
2022-10-30T00:59:07.645Z,1.50
2022-10-30T01:01:39.374Z,1.10
2022-10-30T01:04:07.547Z,1.92
2022-10-30T01:06:42.259Z,1.48
2022-10-30T01:09:09.552Z,1.73
2022-10-30T01:11:36.910Z,1.55
2022-10-30T01:14:07.971Z,1.63
2022-10-30T01:17:12.399Z,2.00
2022-10-30T01:19:55.059Z,1.42
2022-10-30T01:22:43.744Z,1.98
2022-10-30T01:25:33.001Z,1.88
2022-10-30T01:28:28.634Z,1.92
2022-10-30T01:31:15.609Z,2.20
2022-10-30T01:33:42.772Z,2.10
2022-10-30T01:36:17.852Z,1.58
2022-10-30T01:38:52.050Z,1.27
2022-10-30T01:41:19.686Z,1.35
2022-10-30T01:43:53.208Z,2.38
2022-10-30T01:46:20.505Z,1.73
2022-10-30T01:49:07.569Z,2.03
2022-10-30T01:52:00.899Z,2.50
2022-10-30T01:54:49.430Z,2.20
2022-10-30T01:57:49.207Z,1.70
2022-10-30T02:00:17.457Z,1.67
2022-10-30T02:02:50.376Z,1.90
2022-10-30T02:05:44.101Z,2.35
2022-10-30T02:08:11.723Z,1.55
2022-10-30T02:10:42.578Z,1.90
2022-10-30T02:13:11.097Z,1.73
2022-10-30T02:15:39.273Z,1.48
2022-10-30T02:18:06.553Z,1.40
2022-10-30T02:20:33.901Z,1.80
2022-10-30T02:23:01.733Z,2.00
2022-10-30T02:25:34.027Z,4.45
2022-10-30T02:28:01.726Z,3.03
2022-10-30T02:30:31.416Z,2.00
2022-10-30T02:33:01.655Z,2.05
2022-10-30T02:35:30.121Z,1.80
2022-10-30T02:37:57.670Z,2.13
2022-10-30T02:40:26.497Z,2.30
2022-10-30T02:42:54.902Z,2.15
2022-10-30T02:45:22.710Z,2.20
2022-10-30T02:47:50.369Z,14.18
2022-10-30T02:50:17.916Z,1.85
2022-10-30T02:52:45.361Z,1.58
2022-10-30T02:55:13.004Z,2.00
2022-10-30T02:57:42.249Z,1.88
2022-10-30T03:00:10.223Z,1.67
2022-10-30T03:02:37.672Z,1.95
2022-10-30T03:05:05.137Z,1.63
2022-10-30T03:07:32.691Z,1.75
2022-10-30T03:09:59.901Z,2.03
2022-10-30T03:12:27.089Z,1.90
2022-10-30T03:14:54.436Z,2.00
2022-10-30T03:17:21.582Z,2.17
2022-10-30T03:19:49.538Z,2.20
2022-10-30T03:22:17.026Z,2.00
2022-10-30T03:24:44.182Z,2.63
2022-10-30T03:27:11.725Z,3.58
2022-10-30T03:29:40.291Z,2.33
2022-10-30T03:32:11.937Z,2.10
2022-10-30T03:34:50.999Z,1.63
2022-10-30T03:37:19.565Z,2.58
2022-10-30T03:39:46.709Z,2.03
2022-10-30T03:42:14.822Z,5.40
2022-10-30T03:44:42.027Z,1.88
2022-10-30T03:47:09.324Z,2.53
2022-10-30T03:49:41.772Z,2.45
2022-10-30T03:52:12.783Z,2.13
2022-10-30T03:54:39.991Z,1.75
2022-10-30T03:57:08.619Z,2.53
2022-10-30T03:59:48.519Z,2.28
2022-10-30T04:02:38.764Z,3.00
2022-10-30T04:05:06.266Z,2.53
2022-10-30T04:07:33.450Z,2.78
2022-10-30T04:10:00.898Z,2.40
2022-10-30T04:12:29.521Z,2.20
2022-10-30T04:14:57.045Z,2.28
2022-10-30T04:17:24.202Z,2.55
2022-10-30T04:19:51.451Z,2.13
2022-10-30T04:22:19.000Z,2.47
2022-10-30T04:24:49.156Z,1.95
2022-10-30T04:27:17.018Z,2.22
2022-10-30T04:29:44.423Z,2.10
2022-10-30T04:32:11.816Z,2.83
2022-10-30T04:34:39.673Z,2.03
2022-10-30T04:37:07.664Z,2.20
2022-10-30T04:39:34.884Z,2.45
2022-10-30T04:42:12.357Z,2.88
2022-10-30T04:44:40.929Z,2.88
2022-10-30T04:47:09.117Z,2.40
2022-10-30T04:49:36.552Z,3.67
2022-10-30T04:52:03.688Z,2.15
2022-10-30T04:54:30.915Z,2.25
2022-10-30T04:56:58.342Z,2.20
2022-10-30T04:59:25.582Z,2.20
2022-10-30T05:01:54.636Z,2.25
2022-10-30T05:04:22.201Z,2.05
2022-10-30T05:06:49.733Z,2.67
2022-10-30T05:09:17.095Z,2.60
2022-10-30T05:11:44.417Z,2.15
2022-10-30T05:14:11.911Z,1.88
2022-10-30T05:16:39.358Z,2.25
2022-10-30T05:19:07.404Z,2.08
2022-10-30T05:21:35.613Z,2.38
2022-10-30T05:24:03.071Z,2.05
2022-10-30T05:26:38.523Z,2.50
2022-10-30T05:29:05.785Z,1.88
2022-10-30T05:31:33.077Z,2.17
2022-10-30T05:34:07.525Z,2.08
2022-10-30T05:36:37.931Z,2.00
2022-10-30T05:39:05.854Z,2.28
2022-10-30T05:41:36.921Z,2.42
2022-10-30T05:44:04.617Z,2.50
2022-10-30T05:46:33.390Z,2.35
2022-10-30T05:49:11.935Z,2.40
2022-10-30T05:51:40.702Z,2.42
2022-10-30T05:54:10.844Z,1.77
2022-10-30T05:56:44.463Z,2.05
2022-10-30T05:59:12.532Z,2.72
2022-10-30T06:01:39.864Z,2.35
2022-10-30T06:04:12.600Z,2.50
2022-10-30T06:06:39.841Z,2.28
2022-10-30T06:09:07.283Z,2.47
2022-10-30T06:11:58.743Z,1.93
2022-10-30T06:14:44.730Z,2.03
2022-10-30T06:17:12.050Z,2.40
2022-10-30T06:19:59.722Z,2.08
2022-10-30T06:23:06.329Z,2.15
2022-10-30T06:25:43.184Z,2.33
2022-10-30T06:28:33.525Z,2.30
2022-10-30T06:31:01.149Z,1.85
2022-10-30T06:33:28.388Z,2.28
2022-10-30T06:35:56.044Z,2.13
2022-10-30T06:38:23.847Z,2.30
2022-10-30T06:40:52.469Z,2.42
2022-10-30T06:43:41.309Z,2.53
2022-10-30T06:46:14.371Z,2.13
2022-10-30T06:48:43.979Z,2.40
2022-10-30T06:51:15.982Z,2.22
2022-10-30T06:53:44.354Z,2.38
2022-10-30T06:56:30.137Z,2.50
2022-10-30T06:59:08.298Z,2.60
2022-10-30T07:01:45.172Z,2.90
2022-10-30T07:04:17.916Z,2.58
2022-10-30T07:06:45.240Z,2.22
2022-10-30T07:09:12.903Z,2.75
2022-10-30T07:11:45.718Z,3.08
2022-10-30T07:14:19.645Z,3.22
2022-10-30T07:16:58.382Z,3.15
2022-10-30T07:19:26.838Z,3.13
2022-10-30T07:21:56.629Z,2.83
2022-10-30T07:24:24.051Z,2.83
2022-10-30T07:27:10.042Z,3.17
2022-10-30T07:29:57.526Z,2.90
2022-10-30T07:32:27.524Z,2.78
2022-10-30T07:35:14.500Z,3.00
2022-10-30T07:38:14.338Z,3.47
2022-10-30T07:40:54.642Z,3.65
2022-10-30T07:43:51.186Z,3.25
2022-10-30T07:46:36.841Z,3.70
2022-10-30T07:49:33.686Z,3.17
2022-10-30T07:52:06.289Z,3.25
2022-10-30T07:54:33.870Z,3.05
2022-10-30T07:57:15.824Z,3.28
2022-10-30T08:00:12.587Z,3.17
2022-10-30T08:02:40.073Z,3.08
2022-10-30T08:05:15.371Z,3.08
2022-10-30T08:08:03.789Z,2.60
2022-10-30T08:10:31.641Z,2.95
2022-10-30T08:12:58.940Z,3.45
2022-10-30T08:15:26.728Z,3.05
2022-10-30T08:17:54.752Z,2.88
2022-10-30T08:20:23.986Z,2.63
2022-10-30T08:22:52.804Z,2.30
2022-10-30T08:25:27.381Z,2.85
2022-10-30T08:27:56.249Z,2.70
2022-10-30T08:30:28.849Z,2.75
2022-10-30T08:33:03.800Z,2.45
2022-10-30T08:35:51.907Z,2.95
2022-10-30T08:38:19.950Z,2.45
2022-10-30T08:40:55.530Z,2.25
2022-10-30T08:43:25.337Z,2.25
2022-10-30T08:45:53.090Z,2.38
2022-10-30T08:48:22.216Z,2.80
2022-10-30T08:50:51.033Z,1.65
2022-10-30T08:53:25.923Z,2.20
2022-10-30T08:55:55.937Z,1.63
2022-10-30T08:58:32.252Z,1.70
2022-10-30T09:01:01.613Z,1.80
2022-10-30T09:04:07.606Z,1.63
2022-10-30T09:07:01.940Z,2.33
2022-10-30T09:09:58.327Z,1.65
2022-10-30T09:12:28.557Z,2.17
2022-10-30T09:14:55.768Z,1.45
2022-10-30T09:17:23.408Z,1.60
2022-10-30T09:19:52.953Z,1.90
2022-10-30T09:22:30.386Z,1.77
2022-10-30T09:24:57.882Z,1.40
2022-10-30T09:28:03.435Z,2.05
2022-10-30T09:30:43.553Z,1.52
2022-10-30T09:33:13.294Z,1.33
2022-10-30T09:36:02.751Z,1.40
2022-10-30T09:38:30.012Z,1.63
2022-10-30T09:41:23.642Z,1.65
2022-10-30T09:44:15.556Z,1.52
2022-10-30T09:47:23.160Z,1.80
2022-10-30T09:50:10.328Z,1.33
2022-10-30T09:52:46.078Z,1.42
2022-10-30T09:55:38.041Z,1.05
2022-10-30T09:58:28.174Z,1.73
2022-10-30T10:01:30.622Z,1.43
2022-10-30T10:04:15.069Z,1.27
2022-10-30T10:06:48.926Z,1.42
2022-10-30T10:09:38.978Z,1.45
2022-10-30T10:12:44.607Z,1.90
2022-10-30T10:15:22.897Z,1.30
2022-10-30T10:17:50.339Z,1.85
2022-10-30T10:20:44.166Z,1.50
2022-10-30T10:23:47.829Z,1.80
2022-10-30T10:26:47.634Z,1.77
2022-10-30T10:29:23.901Z,1.55
2022-10-30T10:32:03.530Z,1.92
2022-10-30T10:34:45.841Z,1.90
2022-10-30T10:37:34.721Z,1.60
2022-10-30T10:40:24.727Z,1.58
2022-10-30T10:43:06.618Z,1.85
2022-10-30T10:45:46.333Z,1.38
2022-10-30T10:48:41.203Z,1.95
2022-10-30T10:51:33.808Z,1.85
2022-10-30T10:54:11.259Z,1.85
2022-10-30T10:56:41.853Z,1.50
2022-10-30T10:59:18.839Z,2.00
2022-10-30T11:01:54.474Z,2.00
2022-10-30T11:04:32.672Z,1.90
2022-10-30T11:07:13.496Z,2.05
2022-10-30T11:09:42.640Z,1.92
2022-10-30T11:12:09.834Z,1.85
2022-10-30T11:14:37.914Z,2.05
2022-10-30T11:17:24.382Z,2.20
2022-10-30T11:19:59.065Z,2.00
2022-10-30T11:22:31.843Z,2.05
2022-10-30T11:25:17.869Z,1.95
2022-10-30T11:27:48.540Z,1.73
2022-10-30T11:30:26.400Z,1.50
2022-10-30T11:32:56.899Z,1.98
2022-10-30T11:35:25.775Z,1.80
2022-10-30T11:38:15.744Z,2.10
2022-10-30T11:40:48.692Z,2.30
2022-10-30T11:43:22.134Z,2.22
2022-10-30T11:45:50.567Z,2.10
2022-10-30T11:48:27.217Z,2.97
2022-10-30T11:51:01.963Z,2.80
2022-10-30T11:53:38.649Z,2.53
2022-10-30T11:56:23.007Z,2.58
2022-10-30T11:58:54.356Z,2.47
2022-10-30T12:01:30.973Z,2.10
2022-10-30T12:04:22.211Z,2.47
2022-10-30T12:07:08.075Z,2.42
2022-10-30T12:09:46.431Z,2.40
2022-10-30T12:12:33.872Z,3.05
2022-10-30T12:15:24.787Z,2.67
2022-10-30T12:18:03.176Z,2.60
2022-10-30T12:20:30.530Z,3.25
2022-10-30T12:22:58.420Z,2.85
2022-10-30T12:25:31.161Z,2.72
2022-10-30T12:28:06.985Z,3.10
2022-10-30T12:30:46.803Z,3.20
2022-10-30T12:33:21.083Z,2.83
2022-10-30T12:35:58.283Z,2.60
2022-10-30T12:38:36.666Z,3.20
2022-10-30T12:41:18.724Z,3.08
2022-10-30T12:43:55.184Z,3.20
2022-10-30T12:46:42.635Z,3.05
2022-10-30T12:49:46.047Z,3.22
2022-10-30T12:52:19.025Z,3.00
2022-10-30T12:54:50.835Z,3.70
2022-10-30T12:57:22.715Z,3.22
2022-10-30T13:00:00.551Z,3.75
2022-10-30T13:02:50.626Z,3.50
2022-10-30T13:05:39.944Z,3.70
2022-10-30T13:08:23.687Z,3.42
2022-10-30T13:11:14.118Z,3.67
2022-10-30T13:13:48.399Z,3.38
2022-10-30T13:16:30.462Z,3.47
2022-10-30T13:19:00.766Z,4.38
2022-10-30T13:21:45.373Z,3.88
2022-10-30T13:24:24.063Z,3.53
2022-10-30T13:27:02.485Z,4.25
2022-10-30T13:29:38.916Z,3.95
2022-10-30T13:32:24.543Z,4.07
2022-10-30T13:35:00.722Z,3.80
2022-10-30T13:37:38.452Z,4.45
2022-10-30T13:40:20.949Z,4.35
2022-10-30T13:42:53.846Z,3.63
2022-10-30T13:45:30.411Z,4.30
2022-10-30T13:48:18.917Z,4.13
2022-10-30T13:51:17.188Z,4.45
2022-10-30T13:53:49.123Z,4.38
2022-10-30T13:56:18.959Z,4.70
2022-10-30T13:59:04.376Z,5.35
2022-10-30T14:01:39.407Z,5.10
2022-10-30T14:05:04.102Z,5.30
2022-10-30T14:07:54.952Z,4.90
2022-10-30T14:10:45.239Z,5.03
2022-10-30T14:13:26.900Z,5.47
2022-10-30T14:16:02.355Z,5.43
2022-10-30T14:18:45.400Z,5.40
2022-10-30T14:21:36.167Z,5.38
2022-10-30T14:24:18.843Z,5.43
2022-10-30T14:26:52.646Z,5.80
2022-10-30T14:29:34.500Z,5.00
2022-10-30T14:32:14.291Z,3.60
2022-10-30T14:34:51.659Z,4.63
2022-10-30T14:37:38.792Z,5.50
2022-10-30T14:40:40.484Z,6.00
2022-10-30T14:43:31.375Z,5.20
2022-10-30T14:46:15.669Z,5.43
2022-10-30T14:48:57.660Z,5.57
2022-10-30T14:51:37.153Z,6.18
2022-10-30T14:54:24.562Z,5.53
2022-10-30T14:56:54.169Z,6.18
2022-10-30T14:59:32.477Z,6.25
2022-10-30T15:02:35.573Z,6.00
2022-10-30T15:05:25.487Z,6.50
2022-10-30T15:08:10.745Z,6.55
2022-10-30T15:10:49.895Z,6.15
2022-10-30T15:13:24.026Z,5.70
2022-10-30T15:16:02.949Z,5.97
2022-10-30T15:18:31.391Z,5.30
2022-10-30T15:21:06.153Z,5.78
2022-10-30T15:23:41.714Z,5.55
2022-10-30T15:26:21.293Z,5.32
2022-10-30T15:28:53.956Z,5.55
2022-10-30T15:31:23.955Z,5.57
2022-10-30T15:33:54.278Z,6.03
2022-10-30T15:36:24.091Z,7.22
2022-10-30T15:39:11.805Z,5.82
2022-10-30T15:41:59.621Z,5.85
2022-10-30T15:44:36.970Z,6.28
2022-10-30T15:47:05.444Z,7.25
2022-10-30T15:49:38.061Z,8.15
2022-10-30T15:52:17.073Z,9.23
2022-10-30T15:54:47.252Z,9.93
2022-10-30T15:58:01.011Z,10.23
2022-10-30T16:02:49.620Z,9.65
2022-10-30T16:05:22.518Z,10.65
2022-10-30T16:07:49.928Z,11.25
2022-10-30T16:10:18.419Z,10.55
2022-10-30T16:12:45.845Z,10.93
2022-10-30T16:15:25.668Z,11.57
2022-10-30T16:18:21.313Z,10.95
2022-10-30T16:20:52.239Z,11.23
2022-10-30T16:23:20.659Z,11.35
2022-10-30T16:25:53.171Z,10.45
2022-10-30T16:28:29.141Z,11.70
2022-10-30T16:31:02.286Z,12.25
2022-10-30T16:33:32.223Z,10.60
2022-10-30T16:36:02.115Z,10.77
2022-10-30T16:38:33.617Z,11.63
2022-10-30T16:43:33.506Z,9.82
2022-10-30T16:46:16.125Z,10.43
2022-10-30T16:48:48.596Z,10.05
2022-10-30T16:51:18.196Z,9.75
2022-10-30T16:53:50.555Z,10.07
2022-10-30T16:56:26.831Z,10.52
2022-10-30T16:58:57.868Z,9.13
2022-10-30T17:01:28.350Z,10.00
2022-10-30T17:03:56.812Z,10.85
2022-10-30T17:06:36.228Z,10.45
2022-10-30T17:09:08.923Z,11.13
2022-10-30T17:11:45.101Z,10.63
2022-10-30T17:14:22.822Z,10.75
2022-10-30T17:17:00.196Z,10.80
2022-10-30T17:19:30.397Z,10.88
2022-10-30T17:22:00.673Z,14.10
2022-10-30T17:24:36.616Z,12.75
2022-10-30T17:27:23.395Z,13.10
2022-10-30T17:29:50.765Z,13.48
2022-10-30T17:32:29.489Z,11.75
2022-10-30T17:35:02.992Z,12.98
2022-10-30T17:37:30.385Z,13.25
2022-10-30T17:39:57.533Z,13.10
2022-10-30T17:42:24.936Z,13.05
2022-10-30T17:44:52.154Z,13.07
2022-10-30T17:47:21.065Z,12.95
2022-10-30T17:49:49.505Z,13.27
2022-10-30T17:52:20.674Z,13.38
2022-10-30T17:54:47.817Z,12.40
2022-10-30T17:57:16.276Z,13.18
2022-10-30T17:59:43.754Z,12.75
2022-10-30T18:02:17.218Z,13.60
2022-10-30T18:04:45.619Z,13.38
2022-10-30T18:07:15.152Z,12.45
2022-10-30T18:09:43.687Z,13.40
2022-10-30T18:12:15.152Z,12.57
2022-10-30T18:14:45.850Z,13.57
2022-10-30T18:17:13.471Z,9.80
2022-10-30T18:19:40.672Z,13.43
2022-10-30T18:22:10.189Z,13.55
2022-10-30T18:24:37.767Z,13.43
2022-10-30T18:27:04.898Z,12.25
2022-10-30T18:29:32.427Z,12.05
2022-10-30T18:31:59.639Z,11.43
2022-10-30T18:34:26.770Z,11.52
2022-10-30T18:36:54.280Z,11.55
2022-10-30T18:39:21.426Z,10.77
2022-10-30T18:41:49.591Z,11.05
2022-10-30T18:44:18.628Z,10.90
2022-10-30T18:46:46.313Z,10.90
2022-10-30T18:49:13.918Z,10.98
2022-10-30T18:51:41.368Z,10.32
2022-10-30T18:54:16.366Z,10.50
2022-10-30T18:56:44.292Z,10.35
2022-10-30T18:59:11.518Z,9.45
2022-10-30T19:01:39.176Z,9.20
2022-10-30T19:04:10.299Z,9.07
2022-10-30T19:06:38.964Z,8.77
2022-10-30T19:09:06.682Z,10.40
2022-10-30T19:11:36.385Z,8.77
2022-10-30T19:14:11.393Z,8.55
2022-10-30T19:16:38.847Z,8.68
2022-10-30T19:19:06.028Z,7.45
2022-10-30T19:21:34.684Z,8.75
2022-10-30T19:24:03.109Z,8.48
2022-10-30T19:26:30.250Z,7.97
2022-10-30T19:28:57.670Z,9.82
2022-10-30T19:31:24.836Z,9.73
2022-10-30T19:33:54.671Z,9.07
2022-10-30T19:36:36.642Z,8.93
2022-10-30T19:39:11.766Z,8.15
2022-10-30T19:41:40.084Z,7.88
2022-10-30T19:44:07.679Z,7.28
2022-10-30T19:46:35.527Z,7.70
2022-10-30T19:49:19.828Z,7.78
2022-10-30T19:51:47.942Z,6.93
2022-10-30T19:54:15.531Z,7.60
2022-10-30T19:56:44.088Z,8.63
2022-10-30T19:59:15.333Z,8.60
2022-10-30T20:01:44.168Z,7.90
2022-10-30T20:04:11.793Z,8.15
2022-10-30T20:06:39.187Z,8.38
2022-10-30T20:09:10.909Z,8.60
2022-10-30T20:11:38.145Z,7.60
2022-10-30T20:14:05.536Z,8.30
2022-10-30T20:16:32.656Z,7.70
2022-10-30T20:18:59.811Z,8.32
2022-10-30T20:21:27.577Z,7.35
2022-10-30T20:23:54.744Z,7.60
2022-10-30T20:26:26.696Z,7.20
2022-10-30T20:28:54.738Z,8.30
2022-10-30T20:31:22.056Z,6.78
2022-10-30T20:33:49.475Z,7.28
2022-10-30T20:36:16.624Z,6.72
2022-10-30T20:38:43.977Z,6.75
2022-10-30T20:41:22.076Z,6.57
2022-10-30T20:43:52.078Z,5.57
2022-10-30T20:46:19.985Z,7.82
2022-10-30T20:48:47.394Z,9.45
2022-10-30T20:51:14.925Z,6.47
2022-10-30T20:53:42.189Z,6.93
2022-10-30T20:56:11.289Z,6.57
2022-10-30T20:58:41.324Z,6.22
2022-10-30T21:01:09.170Z,5.93
2022-10-30T21:03:36.586Z,7.30
2022-10-30T21:06:03.929Z,5.03
2022-10-30T21:08:32.066Z,4.88
2022-10-30T21:11:01.200Z,4.60
2022-10-30T21:13:28.714Z,5.10
2022-10-30T21:16:01.148Z,5.20
2022-10-30T21:18:28.807Z,5.35
2022-10-30T21:21:03.408Z,5.00
2022-10-30T21:23:30.935Z,5.63
2022-10-30T21:26:05.867Z,6.30
2022-10-30T21:28:33.445Z,5.85
2022-10-30T21:31:02.622Z,11.15
2022-10-30T21:33:34.763Z,5.60
2022-10-30T21:36:12.932Z,4.93
2022-10-30T21:38:47.341Z,4.90
2022-10-30T21:41:18.092Z,5.10
2022-10-30T21:43:53.562Z,4.68
2022-10-30T21:46:23.067Z,5.25
2022-10-30T21:48:50.787Z,5.30
2022-10-30T21:51:20.395Z,7.93
2022-10-30T21:53:48.845Z,5.07
2022-10-30T21:56:18.852Z,4.82
2022-10-30T21:58:46.606Z,5.32
2022-10-30T22:01:21.533Z,5.30
2022-10-30T22:03:49.439Z,6.35
2022-10-30T22:06:19.714Z,5.55
2022-10-30T22:08:48.523Z,5.75
2022-10-30T22:11:17.167Z,6.05
2022-10-30T22:13:45.007Z,6.45
2022-10-30T22:16:14.114Z,6.88
2022-10-30T22:18:41.631Z,7.32
2022-10-30T22:21:11.454Z,7.68
2022-10-30T22:23:40.242Z,8.00
2022-10-30T22:26:11.747Z,8.05
2022-10-30T22:28:39.200Z,8.10
2022-10-30T22:31:26.373Z,9.02
2022-10-30T22:33:53.787Z,9.18
2022-10-30T22:36:24.101Z,9.63
2022-10-30T22:39:02.879Z,9.00
2022-10-30T22:41:34.566Z,8.43
2022-10-30T22:44:08.370Z,9.82
2022-10-30T22:46:36.516Z,9.85
2022-10-30T22:49:03.979Z,10.23
2022-10-30T22:51:33.079Z,10.50
2022-10-30T22:54:02.448Z,9.20
2022-10-30T22:56:31.654Z,9.68
2022-10-30T22:59:02.944Z,9.27
2022-10-30T23:01:32.665Z,8.80
2022-10-30T23:04:01.764Z,9.10
2022-10-30T23:06:30.744Z,9.55
2022-10-30T23:09:00.103Z,9.10
2022-10-30T23:11:28.450Z,8.55
2022-10-30T23:13:56.213Z,9.45
2022-10-30T23:16:24.965Z,9.98
2022-10-30T23:18:55.149Z,10.18
2022-10-30T23:21:25.143Z,10.38
2022-10-30T23:23:52.857Z,10.52
2022-10-30T23:26:27.461Z,10.02
2022-10-30T23:28:56.181Z,10.30
2022-10-30T23:31:30.512Z,10.25
2022-10-30T23:33:59.753Z,11.18
2022-10-30T23:36:27.262Z,10.77
2022-10-30T23:38:56.127Z,10.65
2022-10-30T23:41:25.881Z,10.65
2022-10-30T23:43:54.652Z,10.45
2022-10-30T23:46:22.747Z,10.63
2022-10-30T23:48:50.560Z,9.90
2022-10-30T23:51:18.468Z,9.38
2022-10-30T23:53:45.879Z,9.98
2022-10-30T23:56:13.571Z,10.00
2022-10-30T23:58:45.718Z,10.30
